createdAt,value
2022-08-24T00:00:24.804Z,16.80
2022-08-24T00:02:53.237Z,16.80
2022-08-24T00:05:22.154Z,16.90
2022-08-24T00:07:51.066Z,16.90
2022-08-24T00:10:20.572Z,16.90
2022-08-24T00:12:50.013Z,16.90
2022-08-24T00:15:19.699Z,16.90
2022-08-24T00:17:47.792Z,16.80
2022-08-24T00:20:15.916Z,16.80
2022-08-24T00:22:44.762Z,16.70
2022-08-24T00:25:14.650Z,16.60
2022-08-24T00:27:43.263Z,16.60
2022-08-24T00:30:15.437Z,16.50
2022-08-24T00:32:46.759Z,16.40
2022-08-24T00:35:18.298Z,16.40
2022-08-24T00:37:50.992Z,16.30
2022-08-24T00:40:26.970Z,16.30
2022-08-24T00:42:56.353Z,16.20
2022-08-24T00:45:27.093Z,16.10
2022-08-24T00:48:00.250Z,16.10
2022-08-24T00:50:35.200Z,16.00
2022-08-24T00:53:07.460Z,15.90
2022-08-24T00:55:39.033Z,15.90
2022-08-24T00:58:17.167Z,15.90
2022-08-24T01:00:57.621Z,15.90
2022-08-24T01:03:28.606Z,15.90
2022-08-24T01:05:57.602Z,15.90
2022-08-24T01:08:26.047Z,15.80
2022-08-24T01:10:59.833Z,15.80
2022-08-24T01:13:28.767Z,15.70
2022-08-24T01:16:01.375Z,15.60
2022-08-24T01:18:51.106Z,15.60
2022-08-24T01:21:24.548Z,15.60
2022-08-24T01:23:57.316Z,15.50
2022-08-24T01:26:29.270Z,15.50
2022-08-24T01:29:02.422Z,15.50
2022-08-24T01:31:33.128Z,15.50
2022-08-24T01:34:01.459Z,15.50
2022-08-24T01:36:33.029Z,15.50
2022-08-24T01:39:09.311Z,15.50
2022-08-24T01:41:38.076Z,15.50
2022-08-24T01:44:06.684Z,15.40
2022-08-24T01:46:35.259Z,15.40
2022-08-24T01:49:03.618Z,15.40
2022-08-24T01:51:33.566Z,15.40
2022-08-24T01:54:05.713Z,15.30
2022-08-24T01:56:34.893Z,15.30
2022-08-24T01:59:07.774Z,15.30
2022-08-24T02:01:41.102Z,15.20
2022-08-24T02:04:12.728Z,15.20
2022-08-24T02:06:47.381Z,15.20
2022-08-24T02:09:18.205Z,15.20
2022-08-24T02:11:46.460Z,15.10
2022-08-24T02:14:14.893Z,15.10
2022-08-24T02:16:43.373Z,15.10
2022-08-24T02:19:11.855Z,15.00
2022-08-24T02:21:40.582Z,15.00
2022-08-24T02:24:09.719Z,14.90
2022-08-24T02:26:39.632Z,14.90
2022-08-24T02:29:08.328Z,14.90
2022-08-24T02:31:37.301Z,14.80
2022-08-24T02:34:05.950Z,14.80
2022-08-24T02:36:34.078Z,14.70
2022-08-24T02:39:02.468Z,14.70
2022-08-24T02:41:34.601Z,14.60
2022-08-24T02:44:05.077Z,14.60
2022-08-24T02:46:34.858Z,14.60
2022-08-24T02:49:11.095Z,14.50
2022-08-24T02:51:47.276Z,14.50
2022-08-24T02:54:19.439Z,14.50
2022-08-24T02:56:49.543Z,14.40
2022-08-24T02:59:19.811Z,14.40
2022-08-24T03:01:50.070Z,14.40
2022-08-24T03:04:20.692Z,14.40
2022-08-24T03:06:49.349Z,14.40
2022-08-24T03:09:18.445Z,14.40
2022-08-24T03:11:47.006Z,14.40
2022-08-24T03:14:18.552Z,14.40
2022-08-24T03:16:46.768Z,14.40
2022-08-24T03:19:15.583Z,14.40
2022-08-24T03:21:45.579Z,14.30
2022-08-24T03:24:14.137Z,14.20
2022-08-24T03:26:44.083Z,14.20
2022-08-24T03:29:15.918Z,14.20
2022-08-24T03:31:47.274Z,14.10
2022-08-24T03:34:15.945Z,14.10
2022-08-24T03:36:46.999Z,14.10
2022-08-24T03:39:17.245Z,14.10
2022-08-24T03:41:45.970Z,14.10
2022-08-24T03:44:14.261Z,14.10
2022-08-24T03:46:46.316Z,14.10
2022-08-24T03:49:14.870Z,14.00
2022-08-24T03:51:43.620Z,14.10
2022-08-24T03:54:13.560Z,14.20
2022-08-24T03:56:42.319Z,14.20
2022-08-24T03:59:11.292Z,14.20
2022-08-24T04:01:43.336Z,14.20
2022-08-24T04:04:13.081Z,14.20
2022-08-24T04:06:44.509Z,14.10
2022-08-24T04:09:13.486Z,14.10
2022-08-24T04:11:46.015Z,14.10
2022-08-24T04:14:26.889Z,14.10
2022-08-24T04:17:15.669Z,14.10
2022-08-24T04:19:58.339Z,14.10
2022-08-24T04:22:36.754Z,14.00
2022-08-24T04:25:09.056Z,14.10
2022-08-24T04:27:38.702Z,14.10
2022-08-24T04:30:09.869Z,14.10
2022-08-24T04:33:00.320Z,14.10
2022-08-24T04:35:29.896Z,14.10
2022-08-24T04:37:58.035Z,14.10
2022-08-24T04:40:26.271Z,14.10
2022-08-24T04:42:54.718Z,14.20
2022-08-24T04:45:23.154Z,14.40
2022-08-24T04:47:52.603Z,14.50
2022-08-24T04:50:21.902Z,14.60
2022-08-24T04:52:54.268Z,14.70
2022-08-24T04:55:22.907Z,14.90
2022-08-24T04:57:53.638Z,15.00
2022-08-24T05:00:22.273Z,15.10
2022-08-24T05:02:50.637Z,15.30
2022-08-24T05:05:19.002Z,15.40
2022-08-24T05:07:47.206Z,15.40
2022-08-24T05:10:16.950Z,15.50
2022-08-24T05:12:45.296Z,15.50
2022-08-24T05:15:16.299Z,15.50
2022-08-24T05:17:50.352Z,15.60
2022-08-24T05:20:20.284Z,15.60
2022-08-24T05:22:50.959Z,15.60
2022-08-24T05:25:23.081Z,15.60
2022-08-24T05:27:51.995Z,15.60
2022-08-24T05:30:20.563Z,15.70
2022-08-24T05:32:49.244Z,15.70
2022-08-24T05:35:17.807Z,15.60
2022-08-24T05:37:46.146Z,15.70
2022-08-24T05:40:18.053Z,15.80
2022-08-24T05:42:51.800Z,15.80
2022-08-24T05:45:21.167Z,15.90
2022-08-24T05:47:51.409Z,16.00
2022-08-24T05:50:40.113Z,16.00
2022-08-24T05:53:09.512Z,16.20
2022-08-24T05:55:40.859Z,16.30
2022-08-24T05:58:18.569Z,16.40
2022-08-24T06:00:59.906Z,16.40
2022-08-24T06:03:30.388Z,16.50
2022-08-24T06:05:59.609Z,16.50
2022-08-24T06:08:27.973Z,16.60
2022-08-24T06:10:56.117Z,16.50
2022-08-24T06:13:25.696Z,16.60
2022-08-24T06:16:20.978Z,16.80
2022-08-24T06:18:52.222Z,16.80
2022-08-24T06:21:28.374Z,17.00
2022-08-24T06:23:59.723Z,17.20
2022-08-24T06:26:50.077Z,17.40
2022-08-24T06:29:21.580Z,17.50
2022-08-24T06:31:56.194Z,17.70
2022-08-24T06:34:26.679Z,17.60
2022-08-24T06:36:55.170Z,17.70
2022-08-24T06:39:26.432Z,17.90
2022-08-24T06:41:57.849Z,17.90
2022-08-24T06:44:35.789Z,18.10
2022-08-24T06:47:18.736Z,18.10
2022-08-24T06:49:47.105Z,18.30
2022-08-24T06:52:15.379Z,18.30
2022-08-24T06:54:43.734Z,18.40
2022-08-24T06:57:12.139Z,18.50
2022-08-24T06:59:43.209Z,18.60
2022-08-24T07:02:15.697Z,18.80
2022-08-24T07:04:44.954Z,18.90
2022-08-24T07:07:31.544Z,19.10
2022-08-24T07:10:02.154Z,19.30
2022-08-24T07:12:30.460Z,19.40
2022-08-24T07:15:03.299Z,19.60
2022-08-24T07:17:37.351Z,19.70
2022-08-24T07:20:06.626Z,19.80
2022-08-24T07:22:54.766Z,20.00
2022-08-24T07:25:23.072Z,20.00
2022-08-24T07:27:53.632Z,20.00
2022-08-24T07:30:27.247Z,20.10
2022-08-24T07:32:57.961Z,20.20
2022-08-24T07:35:28.024Z,20.40
2022-08-24T07:37:58.212Z,20.50
2022-08-24T07:40:28.452Z,20.60
2022-08-24T07:43:00.319Z,20.70
2022-08-24T07:45:31.071Z,20.90
2022-08-24T07:50:38.880Z,21.20
2022-08-24T07:53:11.039Z,21.30
2022-08-24T07:55:45.810Z,21.40
2022-08-24T07:58:15.079Z,21.50
2022-08-24T08:00:48.985Z,21.60
2022-08-24T08:03:17.749Z,21.70
2022-08-24T08:05:46.922Z,21.70
2022-08-24T08:08:17.440Z,21.80
2022-08-24T08:10:46.671Z,21.90
2022-08-24T08:13:15.563Z,22.10
2022-08-24T08:15:44.139Z,22.30
2022-08-24T08:18:14.644Z,22.30
2022-08-24T08:20:43.750Z,22.30
2022-08-24T08:23:30.747Z,22.30
2022-08-24T08:26:16.279Z,22.40
2022-08-24T08:29:04.987Z,22.60
2022-08-24T08:31:36.478Z,22.80
2022-08-24T08:34:09.763Z,22.90
2022-08-24T08:36:40.311Z,23.10
2022-08-24T08:39:11.308Z,23.30
2022-08-24T08:42:05.138Z,23.30
2022-08-24T08:44:54.073Z,23.30
2022-08-24T08:47:44.610Z,23.40
2022-08-24T08:50:22.049Z,23.50
2022-08-24T08:53:25.058Z,23.70
2022-08-24T08:56:04.076Z,23.80
2022-08-24T08:58:57.317Z,23.90
2022-08-24T09:01:49.095Z,24.10
2022-08-24T09:04:52.115Z,24.20
2022-08-24T09:07:35.177Z,24.30
2022-08-24T09:10:40.832Z,24.50
2022-08-24T09:13:24.647Z,24.80
2022-08-24T09:16:19.408Z,25.00
2022-08-24T09:19:03.788Z,25.00
2022-08-24T09:21:46.505Z,25.10
2022-08-24T09:24:32.104Z,25.10
2022-08-24T09:27:22.036Z,25.10
2022-08-24T09:30:07.002Z,25.10
2022-08-24T09:32:56.353Z,25.20
2022-08-24T09:35:33.124Z,25.20
2022-08-24T09:38:06.195Z,25.30
2022-08-24T09:41:03.988Z,25.20
2022-08-24T09:43:59.252Z,25.30
2022-08-24T09:46:59.198Z,25.60
2022-08-24T09:50:06.103Z,25.80
2022-08-24T09:53:08.493Z,26.00
2022-08-24T09:56:05.989Z,25.80
2022-08-24T09:58:45.563Z,25.60
2022-08-24T10:01:24.099Z,25.70
2022-08-24T10:04:05.855Z,26.00
2022-08-24T10:06:48.118Z,26.20
2022-08-24T10:09:44.883Z,26.40
2022-08-24T10:12:23.399Z,26.40
2022-08-24T10:14:59.099Z,26.50
2022-08-24T10:17:46.760Z,26.70
2022-08-24T10:20:24.568Z,27.00
2022-08-24T10:23:11.344Z,27.20
2022-08-24T10:25:45.354Z,27.20
2022-08-24T10:28:45.947Z,26.90
2022-08-24T10:31:19.506Z,26.50
2022-08-24T10:34:00.179Z,26.50
2022-08-24T10:36:46.348Z,26.70
2022-08-24T10:39:43.367Z,26.90
2022-08-24T10:42:52.600Z,27.30
2022-08-24T10:45:42.583Z,27.80
2022-08-24T10:48:42.663Z,28.40
2022-08-24T10:51:28.272Z,28.60
2022-08-24T10:53:58.919Z,28.40
2022-08-24T10:56:37.042Z,28.10
2022-08-24T10:59:17.523Z,27.80
2022-08-24T11:02:10.012Z,28.00
2022-08-24T11:04:41.596Z,27.80
2022-08-24T11:07:18.553Z,27.50
2022-08-24T11:09:53.327Z,27.70
2022-08-24T11:12:28.919Z,27.80
2022-08-24T11:14:59.600Z,27.90
2022-08-24T11:17:31.121Z,28.10
2022-08-24T11:19:59.885Z,28.00
2022-08-24T11:22:41.295Z,28.20
2022-08-24T11:25:16.899Z,28.50
2022-08-24T11:27:47.759Z,28.40
2022-08-24T11:30:26.038Z,28.50
2022-08-24T11:32:57.497Z,28.70
2022-08-24T11:35:27.891Z,28.60
2022-08-24T11:37:59.236Z,28.70
2022-08-24T11:40:30.943Z,28.70
2022-08-24T11:43:12.690Z,28.70
2022-08-24T11:45:45.850Z,28.70
2022-08-24T11:48:36.077Z,28.40
2022-08-24T11:51:13.521Z,28.60
2022-08-24T11:53:53.176Z,28.50
2022-08-24T11:56:29.153Z,28.40
2022-08-24T11:59:06.212Z,28.50
2022-08-24T12:01:43.557Z,28.40
2022-08-24T12:04:42.991Z,28.30
2022-08-24T12:07:21.693Z,28.50
2022-08-24T12:10:03.506Z,28.80
2022-08-24T12:12:39.216Z,29.00
2022-08-24T12:15:13.099Z,29.30
2022-08-24T12:17:48.775Z,29.60
2022-08-24T12:20:27.638Z,29.90
2022-08-24T12:23:00.964Z,30.10
2022-08-24T12:25:50.066Z,30.30
2022-08-24T12:28:25.621Z,30.30
2022-08-24T12:30:55.652Z,30.50
2022-08-24T12:33:30.149Z,30.60
2022-08-24T12:36:04.700Z,30.70
2022-08-24T12:38:39.500Z,30.80
2022-08-24T12:41:19.576Z,31.10
2022-08-24T12:43:52.787Z,31.30
2022-08-24T12:46:24.045Z,31.30
2022-08-24T12:48:57.508Z,30.80
2022-08-24T12:51:38.341Z,30.30
2022-08-24T12:54:26.300Z,30.00
2022-08-24T12:57:25.458Z,29.70
2022-08-24T12:59:57.841Z,29.50
2022-08-24T13:02:31.820Z,29.10
2022-08-24T13:05:05.879Z,29.20
2022-08-24T13:07:43.364Z,29.20
2022-08-24T13:10:16.587Z,29.30
2022-08-24T13:13:14.205Z,29.30
2022-08-24T13:15:55.056Z,29.50
2022-08-24T13:19:10.548Z,29.70
2022-08-24T13:21:46.302Z,29.70
2022-08-24T13:24:53.198Z,29.40
2022-08-24T13:28:02.379Z,29.20
2022-08-24T13:30:38.651Z,29.30
2022-08-24T13:33:11.396Z,29.10
2022-08-24T13:36:01.696Z,28.80
2022-08-24T13:39:01.583Z,28.80
2022-08-24T13:42:01.416Z,28.90
2022-08-24T13:44:54.230Z,29.30
2022-08-24T13:48:45.929Z,29.70
2022-08-24T13:51:26.262Z,29.70
2022-08-24T13:54:20.364Z,29.80
2022-08-24T13:57:17.141Z,29.70
2022-08-24T14:00:17.857Z,29.50
2022-08-24T14:06:21.326Z,28.70
2022-08-24T14:09:00.198Z,28.50
2022-08-24T14:11:42.132Z,28.20
2022-08-24T14:14:19.209Z,28.00
2022-08-24T14:17:19.374Z,28.00
2022-08-24T14:19:57.350Z,28.10
2022-08-24T14:22:36.133Z,28.40
2022-08-24T14:25:17.065Z,28.70
2022-08-24T14:27:47.550Z,29.00
2022-08-24T14:30:39.188Z,29.40
2022-08-24T14:33:15.833Z,29.80
2022-08-24T14:35:57.677Z,30.10
2022-08-24T14:38:52.808Z,30.30
2022-08-24T14:41:41.335Z,30.20
2022-08-24T14:44:37.917Z,29.80
2022-08-24T14:47:14.960Z,29.60
2022-08-24T14:50:07.980Z,29.40
2022-08-24T14:52:53.206Z,29.40
2022-08-24T14:55:30.660Z,29.20
2022-08-24T14:58:15.604Z,29.00
2022-08-24T15:00:53.353Z,29.00
2022-08-24T15:03:59.717Z,28.90
2022-08-24T15:06:37.883Z,29.00
2022-08-24T15:09:20.886Z,29.00
2022-08-24T15:11:57.360Z,29.00
2022-08-24T15:14:37.384Z,29.10
2022-08-24T15:17:10.471Z,29.10
2022-08-24T15:19:50.588Z,29.00
2022-08-24T15:22:27.397Z,29.00
2022-08-24T15:25:03.502Z,28.90
2022-08-24T15:27:43.729Z,28.90
2022-08-24T15:30:23.607Z,28.80
2022-08-24T15:32:55.504Z,28.50
2022-08-24T15:35:27.760Z,28.50
2022-08-24T15:37:56.644Z,28.40
2022-08-24T15:40:29.810Z,28.30
2022-08-24T15:43:05.423Z,28.20
2022-08-24T15:45:34.645Z,28.20
2022-08-24T15:48:05.210Z,28.10
2022-08-24T15:50:40.764Z,27.90
2022-08-24T15:53:21.757Z,27.80
2022-08-24T15:55:50.254Z,27.80
2022-08-24T15:58:34.064Z,27.60
2022-08-24T16:01:36.108Z,27.50
2022-08-24T16:04:09.503Z,27.70
2022-08-24T16:06:42.317Z,27.70
2022-08-24T16:09:15.387Z,27.90
2022-08-24T16:11:48.563Z,28.10
2022-08-24T16:14:28.623Z,28.20
2022-08-24T16:16:58.904Z,28.30
2022-08-24T16:19:30.225Z,28.30
2022-08-24T16:22:01.355Z,28.20
2022-08-24T16:24:32.875Z,28.00
2022-08-24T16:27:06.425Z,27.90
2022-08-24T16:29:47.105Z,27.80
2022-08-24T16:32:22.027Z,27.70
2022-08-24T16:35:17.825Z,27.60
2022-08-24T16:37:46.187Z,27.60
2022-08-24T16:40:14.468Z,27.70
2022-08-24T16:42:43.040Z,27.60
2022-08-24T16:45:18.492Z,27.50
2022-08-24T16:47:47.095Z,27.30
2022-08-24T16:50:17.929Z,27.10
2022-08-24T16:52:46.281Z,26.90
2022-08-24T16:55:14.774Z,26.70
2022-08-24T16:57:43.481Z,26.60
2022-08-24T17:00:17.701Z,26.50
2022-08-24T17:02:48.061Z,26.50
2022-08-24T17:05:16.776Z,26.40
2022-08-24T17:07:45.673Z,26.40
2022-08-24T17:10:17.205Z,26.30
2022-08-24T17:12:45.399Z,26.30
2022-08-24T17:15:16.169Z,26.30
2022-08-24T17:17:48.885Z,26.30
2022-08-24T17:20:17.271Z,26.30
2022-08-24T17:22:45.656Z,26.20
2022-08-24T17:25:13.853Z,26.10
2022-08-24T17:27:42.128Z,26.10
2022-08-24T17:30:11.701Z,26.00
2022-08-24T17:32:41.216Z,25.80
2022-08-24T17:35:09.825Z,25.60
2022-08-24T17:37:38.396Z,25.50
2022-08-24T17:40:11.454Z,25.30
2022-08-24T17:42:50.814Z,25.30
2022-08-24T17:45:19.465Z,25.10
2022-08-24T17:47:49.202Z,25.00
2022-08-24T17:50:19.725Z,25.00
2022-08-24T17:52:48.551Z,24.90
2022-08-24T17:55:25.042Z,24.80
2022-08-24T17:57:53.788Z,24.70
2022-08-24T18:00:22.209Z,24.60
2022-08-24T18:02:53.662Z,24.50
2022-08-24T18:05:21.817Z,24.30
2022-08-24T18:07:54.582Z,24.20
2022-08-24T18:10:27.785Z,24.10
2022-08-24T18:12:57.814Z,24.10
2022-08-24T18:15:34.786Z,24.00
2022-08-24T18:18:09.916Z,23.90
2022-08-24T18:20:40.123Z,23.80
2022-08-24T18:23:11.204Z,23.80
2022-08-24T18:25:44.803Z,23.80
2022-08-24T18:28:13.211Z,23.70
2022-08-24T18:30:41.683Z,23.60
2022-08-24T18:33:16.063Z,23.50
2022-08-24T18:35:44.442Z,23.40
2022-08-24T18:38:14.058Z,23.40
2022-08-24T18:40:46.850Z,23.30
2022-08-24T18:43:30.621Z,23.20
2022-08-24T18:45:58.870Z,23.10
2022-08-24T18:48:28.431Z,23.00
2022-08-24T18:50:57.452Z,22.90
2022-08-24T18:53:27.656Z,22.80
2022-08-24T18:56:01.764Z,22.70
2022-08-24T18:58:33.009Z,22.70
2022-08-24T19:01:01.155Z,22.70
2022-08-24T19:03:32.236Z,22.60
2022-08-24T19:06:00.855Z,22.50
2022-08-24T19:08:29.048Z,22.40
2022-08-24T19:10:57.277Z,22.30
2022-08-24T19:13:25.378Z,22.20
2022-08-24T19:15:58.016Z,22.20
2022-08-24T19:18:26.532Z,22.10
2022-08-24T19:20:59.166Z,22.10
2022-08-24T19:23:30.320Z,22.10
2022-08-24T19:25:59.743Z,22.00
2022-08-24T19:28:31.399Z,22.00
2022-08-24T19:31:02.526Z,21.90
2022-08-24T19:33:37.067Z,21.90
2022-08-24T19:36:06.982Z,21.90
2022-08-24T19:38:35.255Z,21.90
2022-08-24T19:41:11.702Z,21.90
2022-08-24T19:43:55.917Z,21.90
2022-08-24T19:46:24.780Z,21.80
2022-08-24T19:48:52.974Z,21.70
2022-08-24T19:51:22.508Z,21.70
2022-08-24T19:53:50.899Z,21.60
2022-08-24T19:56:19.200Z,21.60
2022-08-24T19:58:52.123Z,21.60
2022-08-24T20:01:22.122Z,21.60
2022-08-24T20:03:50.746Z,21.50
2022-08-24T20:06:21.135Z,21.50
2022-08-24T20:08:51.440Z,21.50
2022-08-24T20:11:25.351Z,21.40
2022-08-24T20:13:53.863Z,21.40
2022-08-24T20:16:24.747Z,21.30
2022-08-24T20:18:53.146Z,21.30
2022-08-24T20:21:27.177Z,21.20
2022-08-24T20:24:00.431Z,21.10
2022-08-24T20:26:32.786Z,21.00
2022-08-24T20:29:02.395Z,20.90
2022-08-24T20:31:30.827Z,20.90
2022-08-24T20:33:59.439Z,20.90
2022-08-24T20:36:33.914Z,20.80
2022-08-24T20:39:07.013Z,20.90
2022-08-24T20:41:35.629Z,20.80
2022-08-24T20:44:04.906Z,20.70
2022-08-24T20:46:33.289Z,20.70
2022-08-24T20:49:01.933Z,20.70
2022-08-24T20:51:30.485Z,20.60
2022-08-24T20:53:58.740Z,20.60
2022-08-24T20:56:31.746Z,20.50
2022-08-24T20:59:01.886Z,20.40
2022-08-24T21:01:30.269Z,20.30
2022-08-24T21:04:04.163Z,20.30
2022-08-24T21:06:34.320Z,20.20
2022-08-24T21:09:03.305Z,20.10
2022-08-24T21:11:33.632Z,20.00
2022-08-24T21:14:02.402Z,20.00
2022-08-24T21:16:30.596Z,20.00
2022-08-24T21:18:58.762Z,20.00
2022-08-24T21:21:27.937Z,19.90
2022-08-24T21:23:56.026Z,19.90
2022-08-24T21:26:26.652Z,19.90
2022-08-24T21:28:58.013Z,19.90
2022-08-24T21:31:26.679Z,19.80
2022-08-24T21:34:14.769Z,19.90
2022-08-24T21:36:43.580Z,19.90
2022-08-24T21:39:11.795Z,19.80
2022-08-24T21:41:39.994Z,19.80
2022-08-24T21:44:09.482Z,19.70
2022-08-24T21:46:39.605Z,19.60
2022-08-24T21:49:11.898Z,19.60
2022-08-24T21:51:40.773Z,19.60
2022-08-24T21:54:09.497Z,19.60
2022-08-24T21:56:37.583Z,19.50
2022-08-24T21:59:05.750Z,19.50
2022-08-24T22:01:35.263Z,19.50
2022-08-24T22:04:03.571Z,19.50
2022-08-24T22:06:32.682Z,19.50
2022-08-24T22:09:01.715Z,19.50
2022-08-24T22:11:30.349Z,19.40
2022-08-24T22:13:58.664Z,19.40
2022-08-24T22:16:27.098Z,19.20
2022-08-24T22:18:57.090Z,19.20
2022-08-24T22:21:30.456Z,19.10
2022-08-24T22:23:59.839Z,19.00
2022-08-24T22:26:30.554Z,18.80
2022-08-24T22:28:59.058Z,18.80
2022-08-24T22:31:29.808Z,18.70
2022-08-24T22:34:01.762Z,18.70
2022-08-24T22:36:30.732Z,18.60
2022-08-24T22:39:00.128Z,18.60
2022-08-24T22:41:30.380Z,18.50
2022-08-24T22:44:17.875Z,18.50
2022-08-24T22:46:46.373Z,18.40
2022-08-24T22:49:16.000Z,18.40
2022-08-24T22:51:44.622Z,18.40
2022-08-24T22:54:13.482Z,18.30
2022-08-24T22:56:44.352Z,18.30
2022-08-24T22:59:16.612Z,18.30
2022-08-24T23:01:46.543Z,18.40
2022-08-24T23:04:18.798Z,18.30
2022-08-24T23:06:57.632Z,18.20
2022-08-24T23:09:44.131Z,18.20
2022-08-24T23:12:29.597Z,18.20
2022-08-24T23:15:03.777Z,18.10
2022-08-24T23:17:32.396Z,18.00
2022-08-24T23:20:01.181Z,18.00
2022-08-24T23:22:32.383Z,18.00
2022-08-24T23:25:01.037Z,18.10
2022-08-24T23:27:32.808Z,18.10
2022-08-24T23:30:08.435Z,18.10
2022-08-24T23:32:36.503Z,18.20
2022-08-24T23:35:07.034Z,18.30
2022-08-24T23:37:35.179Z,18.40
2022-08-24T23:40:03.714Z,18.40
2022-08-24T23:42:31.855Z,18.30
2022-08-24T23:45:00.064Z,18.20
2022-08-24T23:47:29.143Z,18.10
2022-08-24T23:49:57.483Z,18.00
2022-08-24T23:52:30.303Z,18.00
2022-08-24T23:55:07.044Z,17.90
2022-08-24T23:57:47.536Z,17.80
